This is the latest recevied weather packets stored in our database for station/object SR9WXZ. If no packets are shown the sender has not sent any weather packets the latest 1 day(s).
| Time | Temp. | Humidity | Pressure | Rain* | Wind** | Luminosity | Snow |
|---|---|---|---|---|---|---|---|
| 1777978641 | 25° C | 100% | 0 hPa | - | 7.15 m/s, 124° | - | - |
| 1777978341 | 24.44° C | 100% | 0 hPa | - | 3.13 m/s, 117° | - | - |
| 1777978039 | 24.44° C | 100% | 0 hPa | - | 6.26 m/s, 124° | - | - |
| 1777977739 | 23.89° C | 100% | 0 hPa | - | 3.58 m/s, 115° | - | - |
| 1777977438 | 24.44° C | 100% | 0 hPa | - | 5.36 m/s, 120° | - | - |
| 1777977138 | 24.44° C | 100% | 0 hPa | - | 5.36 m/s, 119° | - | - |
| 1777976838 | 24.44° C | 100% | 0 hPa | - | 7.6 m/s, 120° | - | - |
| 1777976538 | 24.44° C | 100% | 0 hPa | - | 5.81 m/s, 120° | - | - |
| 1777976238 | 24.44° C | 100% | 0 hPa | - | 7.15 m/s, 123° | - | - |
| 1777975938 | 24.44° C | 100% | 0 hPa | - | 8.05 m/s, 124° | - | - |
| 1777975637 | 25° C | 100% | 0 hPa | - | 7.15 m/s, 126° | - | - |
| 1777975027 | 25° C | 100% | 0 hPa | - | 6.26 m/s, 126° | - | - |
| 1777974727 | 24.44° C | 100% | 0 hPa | - | 6.26 m/s, 127° | - | - |
| 1777974427 | 24.44° C | 100% | 0 hPa | - | 8.49 m/s, 126° | - | - |
| 1777974127 | 23.89° C | 100% | 0 hPa | - | 5.36 m/s, 120° | - | - |
| 1777973826 | 24.44° C | 100% | 0 hPa | - | 5.36 m/s, 124° | - | - |
| 1777973526 | 23.89° C | 100% | 0 hPa | - | 5.36 m/s, 116° | - | - |
| 1777973226 | 23.89° C | 100% | 0 hPa | - | 4.02 m/s, 116° | - | - |
| 1777972926 | 23.89° C | 100% | 0 hPa | - | 4.47 m/s, 119° | - | - |
| 1777972626 | 22.78° C | 100% | 0 hPa | - | 3.58 m/s, 115° | - | - |
| 1777972332 | 23.33° C | 100% | 0 hPa | - | 4.92 m/s, 115° | - | - |
| 1777972025 | 23.33° C | 100% | 0 hPa | - | 2.68 m/s, 114° | - | - |
| 1777971725 | 23.89° C | 100% | 0 hPa | - | 4.92 m/s, 117° | - | - |
| 1777971425 | 23.33° C | 100% | 0 hPa | - | 2.24 m/s, 115° | - | - |
| 1777971125 | 23.33° C | 100% | 0 hPa | - | 2.24 m/s, 117° | - | - |
* Rain since midnight (hover to see other rain measurements)
** Current wind speed in m/s (hover to see current wind gust speed)